createdAt,value
2022-09-30T00:00:27.362Z,99244.53
2022-09-30T00:05:30.072Z,99248.16
2022-09-30T00:10:32.738Z,99262.97
2022-09-30T00:15:35.445Z,99273.31
2022-09-30T00:20:38.070Z,99275.91
2022-09-30T00:25:40.688Z,99258.16
2022-09-30T00:30:43.872Z,99289.84
2022-09-30T00:35:46.595Z,99274.59
2022-09-30T00:40:49.796Z,99294.16
2022-09-30T00:45:59.790Z,99284.75
2022-09-30T00:51:04.664Z,99286.34
2022-09-30T00:56:13.401Z,99284.75
2022-09-30T01:01:16.616Z,99279.56
2022-09-30T01:06:21.970Z,99286.41
2022-09-30T01:11:25.205Z,99275.41
2022-09-30T01:16:58.921Z,99284.06
2022-09-30T01:22:20.662Z,99296.94
2022-09-30T01:27:43.351Z,99293.53
2022-09-30T01:33:12.464Z,99266.03
2022-09-30T01:38:29.635Z,99294.31
2022-09-30T01:43:45.078Z,99275.56
2022-09-30T01:49:11.860Z,99283.28
2022-09-30T01:54:37.916Z,99294.50
2022-09-30T02:00:11.005Z,99291.97
2022-09-30T02:05:20.841Z,99295.47
2022-09-30T02:10:34.676Z,99303.16
2022-09-30T02:15:44.381Z,99284.22
2022-09-30T02:20:52.243Z,99287.69
2022-09-30T02:26:07.898Z,99291.16
2022-09-30T02:31:15.369Z,99280.81
2022-09-30T02:36:29.880Z,99263.81
2022-09-30T02:41:41.758Z,99290.50
2022-09-30T02:46:57.393Z,99292.25
2022-09-30T02:52:48.135Z,99289.69
2022-09-30T02:58:05.495Z,99295.66
2022-09-30T03:03:15.262Z,99294.59
2022-09-30T03:08:17.934Z,99290.19
2022-09-30T03:13:23.519Z,99291.00
2022-09-30T03:18:37.741Z,99292.72
2022-09-30T03:24:11.134Z,99302.09
2022-09-30T03:29:24.624Z,99303.75
2022-09-30T03:34:50.055Z,99300.31
2022-09-30T03:40:04.429Z,99266.81
2022-09-30T03:45:26.519Z,99290.81
2022-09-30T03:50:30.537Z,99294.31
2022-09-30T03:55:33.516Z,99286.56
2022-09-30T04:00:37.337Z,99289.03
2022-09-30T04:05:39.951Z,99300.84
2022-09-30T04:10:44.064Z,99298.94
2022-09-30T04:15:54.277Z,99310.00
2022-09-30T04:20:58.342Z,99311.59
2022-09-30T04:26:02.251Z,99271.94
2022-09-30T04:31:06.392Z,99289.56
2022-09-30T04:36:09.896Z,99303.34
2022-09-30T04:41:16.298Z,99299.03
2022-09-30T04:46:21.284Z,99300.53
2022-09-30T04:51:23.871Z,99307.94
2022-09-30T04:56:27.155Z,99275.19
2022-09-30T05:01:29.728Z,99303.34
2022-09-30T05:06:32.274Z,99306.97
2022-09-30T05:11:35.378Z,99313.72
2022-09-30T05:16:38.135Z,99311.56
2022-09-30T05:21:41.005Z,99300.97
2022-09-30T05:26:43.664Z,99301.69
2022-09-30T05:31:47.777Z,99306.63
2022-09-30T05:36:50.420Z,99294.41
2022-09-30T05:41:53.135Z,99312.19
2022-09-30T05:46:56.096Z,99305.72
2022-09-30T05:51:58.729Z,99308.81
2022-09-30T05:57:01.270Z,99309.34
2022-09-30T06:02:05.067Z,99302.06
2022-09-30T06:07:10.476Z,99296.53
2022-09-30T06:12:13.424Z,99281.69
2022-09-30T06:17:18.723Z,99298.25
2022-09-30T06:22:21.305Z,99301.56
2022-09-30T06:27:25.196Z,99308.94
2022-09-30T06:32:27.836Z,99298.41
2022-09-30T06:37:30.431Z,99308.97
2022-09-30T06:42:34.866Z,99312.78
2022-09-30T06:47:38.928Z,99317.00
2022-09-30T06:52:42.302Z,99319.41
2022-09-30T06:57:48.092Z,99315.69
2022-09-30T07:02:50.676Z,99318.44
2022-09-30T07:07:54.317Z,99314.84
2022-09-30T07:12:56.943Z,99324.97
2022-09-30T07:18:01.641Z,99313.22
2022-09-30T07:23:04.263Z,99314.75
2022-09-30T07:28:07.024Z,99300.13
2022-09-30T07:33:16.618Z,99307.97
2022-09-30T07:38:21.646Z,99315.81
2022-09-30T07:43:26.350Z,99277.91
2022-09-30T07:48:43.609Z,99303.69
2022-09-30T07:53:49.300Z,99304.34
2022-09-30T07:58:56.761Z,99294.09
2022-09-30T08:04:01.872Z,99292.53
2022-09-30T08:09:05.357Z,99286.38
2022-09-30T08:14:07.989Z,99283.75
2022-09-30T08:19:16.816Z,99274.22
2022-09-30T08:24:20.191Z,99283.28
2022-09-30T08:29:50.416Z,99291.97
2022-09-30T08:34:45.416Z,99289.72
2022-09-30T08:39:48.685Z,99279.84
2022-09-30T08:44:52.576Z,99280.38
2022-09-30T08:50:20.027Z,99276.84
2022-09-30T08:55:31.397Z,99275.13
2022-09-30T09:00:35.052Z,99280.66
2022-09-30T09:05:59.017Z,99265.50
2022-09-30T09:11:14.305Z,99280.06
2022-09-30T09:16:35.483Z,99281.56
2022-09-30T09:21:53.893Z,99285.50
2022-09-30T09:27:01.769Z,99287.34
2022-09-30T09:32:14.659Z,99263.09
2022-09-30T09:38:09.436Z,99267.19
2022-09-30T09:43:31.461Z,99274.91
2022-09-30T09:48:35.545Z,99269.72
2022-09-30T09:54:01.441Z,99275.00
2022-09-30T09:59:15.289Z,99273.63
2022-09-30T10:04:27.665Z,99268.50
2022-09-30T10:09:38.765Z,99281.41
2022-09-30T10:14:47.646Z,99266.19
2022-09-30T10:19:55.874Z,99259.00
2022-09-30T10:25:19.259Z,99263.22
2022-09-30T10:30:45.988Z,99261.63
2022-09-30T10:36:00.892Z,99256.81
2022-09-30T10:41:05.378Z,99270.31
2022-09-30T10:46:26.892Z,99266.09
2022-09-30T10:51:36.969Z,99262.94
2022-09-30T10:56:45.641Z,99255.19
2022-09-30T11:01:57.473Z,99261.06
2022-09-30T11:07:31.367Z,99254.63
2022-09-30T11:12:50.031Z,99251.81
2022-09-30T11:17:58.805Z,99262.44
2022-09-30T11:23:16.525Z,99261.09
2022-09-30T11:28:48.120Z,99270.09
2022-09-30T11:33:50.466Z,99278.78
2022-09-30T11:39:14.821Z,99277.06
2022-09-30T11:44:41.847Z,99291.91
2022-09-30T11:50:08.781Z,99291.56
2022-09-30T11:55:21.321Z,99269.88
2022-09-30T12:00:24.110Z,99294.72
2022-09-30T12:05:33.522Z,99290.31
2022-09-30T12:11:14.886Z,99295.09
2022-09-30T12:16:25.384Z,99279.75
2022-09-30T12:22:05.397Z,99282.81
2022-09-30T12:27:26.718Z,99295.69
2022-09-30T12:33:14.346Z,99287.31
2022-09-30T12:38:51.630Z,99292.69
2022-09-30T12:44:16.877Z,99289.56
2022-09-30T12:49:25.762Z,99284.53
2022-09-30T12:54:39.727Z,99275.81
2022-09-30T12:59:53.680Z,99285.16
2022-09-30T13:05:28.336Z,99298.44
2022-09-30T13:10:39.647Z,99299.53
2022-09-30T13:15:46.891Z,99302.72
2022-09-30T13:20:56.786Z,99317.66
2022-09-30T13:25:59.517Z,99295.38
2022-09-30T13:31:19.597Z,99320.06
2022-09-30T13:36:28.169Z,99280.97
2022-09-30T13:41:35.033Z,99342.97
2022-09-30T13:46:37.613Z,99347.09
2022-09-30T13:51:41.953Z,99345.53
2022-09-30T13:56:44.866Z,99352.41
2022-09-30T14:02:07.530Z,99353.97
2022-09-30T14:07:41.730Z,99351.00
2022-09-30T14:13:03.302Z,99359.31
2022-09-30T14:18:29.208Z,99364.34
2022-09-30T14:23:31.831Z,99372.72
2022-09-30T14:28:45.248Z,99375.50
2022-09-30T14:33:50.162Z,99370.41
2022-09-30T14:38:58.397Z,99385.31
2022-09-30T14:44:08.313Z,99368.88
2022-09-30T14:49:16.610Z,99375.06
2022-09-30T14:54:26.625Z,99388.47
2022-09-30T14:59:38.265Z,99393.88
2022-09-30T15:04:51.275Z,99389.88
2022-09-30T15:09:53.953Z,99398.16
2022-09-30T15:14:58.863Z,99407.66
2022-09-30T15:20:01.760Z,99412.56
2022-09-30T15:25:06.753Z,99415.31
2022-09-30T15:30:15.177Z,99426.78
2022-09-30T15:35:24.172Z,99424.75
2022-09-30T15:40:45.513Z,99428.91
2022-09-30T15:45:50.526Z,99443.50
2022-09-30T15:51:00.375Z,99443.56
2022-09-30T15:56:26.838Z,99448.03
2022-09-30T16:01:38.326Z,99452.16
2022-09-30T16:06:40.926Z,99453.00
2022-09-30T16:11:45.552Z,99438.66
2022-09-30T16:16:57.392Z,99449.25
2022-09-30T16:22:00.273Z,99456.16
2022-09-30T16:27:22.350Z,99463.22
2022-09-30T16:32:25.479Z,99474.97
2022-09-30T16:37:28.226Z,99473.91
2022-09-30T16:42:33.071Z,99471.31
2022-09-30T16:47:35.646Z,99461.38
2022-09-30T16:52:38.368Z,99470.59
2022-09-30T16:57:41.327Z,99458.97
2022-09-30T17:02:48.607Z,99476.75
2022-09-30T17:07:59.782Z,99482.00
2022-09-30T17:13:03.659Z,99487.66
2022-09-30T17:18:08.485Z,99483.31
2022-09-30T17:23:11.976Z,99484.91
2022-09-30T17:28:15.481Z,99497.03
2022-09-30T17:33:19.948Z,99471.88
2022-09-30T17:38:22.642Z,99489.13
2022-09-30T17:43:25.419Z,99465.03
2022-09-30T17:48:28.248Z,99478.75
2022-09-30T17:53:31.021Z,99478.56
2022-09-30T17:58:33.693Z,99482.91
2022-09-30T18:03:36.949Z,99463.44
2022-09-30T18:08:39.659Z,99471.31
2022-09-30T18:13:42.398Z,99491.81
2022-09-30T18:18:44.992Z,99490.91
2022-09-30T18:23:47.605Z,99495.44
2022-09-30T18:28:52.812Z,99498.09
2022-09-30T18:33:56.274Z,99509.16
2022-09-30T18:39:02.196Z,99498.94
2022-09-30T18:44:04.772Z,99496.25
2022-09-30T18:49:07.475Z,99505.56
2022-09-30T18:54:13.386Z,99510.75
2022-09-30T18:59:18.413Z,99511.66
2022-09-30T19:04:23.555Z,99510.56
2022-09-30T19:09:26.783Z,99497.44
2022-09-30T19:14:30.816Z,99525.22
2022-09-30T19:19:39.005Z,99517.72
2022-09-30T19:24:42.917Z,99528.06
2022-09-30T19:29:46.337Z,99520.19
2022-09-30T19:34:59.732Z,99528.91
2022-09-30T19:40:20.458Z,99536.66
2022-09-30T19:45:26.252Z,99535.19
2022-09-30T19:50:30.096Z,99538.63
2022-09-30T19:55:43.471Z,99530.94
2022-09-30T20:00:54.649Z,99530.03
2022-09-30T20:05:58.051Z,99550.13
2022-09-30T20:11:06.152Z,99556.38
2022-09-30T20:16:16.209Z,99560.81
2022-09-30T20:21:19.122Z,99560.03
2022-09-30T20:26:22.371Z,99549.81
2022-09-30T20:31:25.845Z,99531.97
2022-09-30T20:36:30.566Z,99551.44
2022-09-30T20:41:38.136Z,99545.66
2022-09-30T20:46:41.846Z,99548.38
2022-09-30T20:51:44.775Z,99538.00
2022-09-30T20:57:06.936Z,99550.84
2022-09-30T21:02:14.313Z,99555.41
2022-09-30T21:07:16.964Z,99552.81
2022-09-30T21:12:19.899Z,99564.81
2022-09-30T21:17:23.075Z,99538.38
2022-09-30T21:22:25.771Z,99560.63
2022-09-30T21:27:28.423Z,99559.78
2022-09-30T21:32:31.064Z,99548.56
2022-09-30T21:37:33.701Z,99565.78
2022-09-30T21:42:37.106Z,99570.28
2022-09-30T21:47:39.688Z,99548.63
2022-09-30T21:52:43.022Z,99559.66
2022-09-30T21:57:47.453Z,99556.31
2022-09-30T22:02:50.635Z,99550.63
2022-09-30T22:07:53.388Z,99540.03
2022-09-30T22:12:56.011Z,99556.59
2022-09-30T22:17:58.694Z,99554.38
2022-09-30T22:23:01.288Z,99561.75
2022-09-30T22:28:04.747Z,99560.00
2022-09-30T22:33:25.803Z,99551.44
2022-09-30T22:38:28.763Z,99543.00
2022-09-30T22:43:32.933Z,99547.09
2022-09-30T22:48:37.059Z,99541.47
2022-09-30T22:53:39.609Z,99525.03
2022-09-30T22:58:42.206Z,99539.56
2022-09-30T23:03:44.940Z,99544.31
2022-09-30T23:08:49.359Z,99545.00
2022-09-30T23:13:58.853Z,99534.25
2022-09-30T23:19:01.988Z,99539.97
2022-09-30T23:24:04.830Z,99528.66
2022-09-30T23:29:10.822Z,99557.78
2022-09-30T23:34:13.714Z,99536.97
2022-09-30T23:39:21.604Z,99542.91
2022-09-30T23:44:24.559Z,99537.09
2022-09-30T23:49:27.188Z,99540.03
2022-09-30T23:54:29.804Z,99533.53
2022-09-30T23:59:32.984Z,99521.47
